Time;durP1;ratioP1;P1;durP2;ratioP2;P2;SDS_P1;SDS_P2;PMS_P1;PMS_P2;Temp;Humidity;BMP_temperature;BMP_pressure;BME280_temperature;BME280_humidity;BME280_pressure;Samples;Min_cycle;Max_cycle;Signal;HPM_P1;HPM_P2
2022/12/13 06:06:12;;;;;;;23.85;14.93;;;;;;;-1.78;72.67;94290.09;4206720;27;20133;-56
2022/12/13 06:08:13;;;;;;;23.83;15.98;;;;;;;-1.81;71.74;94279.19;4186172;28;20080;-52
2022/12/13 06:10:27;;;;;;;24.23;15.60;;;;;;;-2.00;72.30;94282.06;4216501;28;20063;-53
2022/12/13 06:12:36;;;;;;;25.33;15.98;;;;;;;-2.19;72.71;94284.94;4223323;28;20786;-54
2022/12/13 06:14:44;;;;;;;23.48;15.57;;;;;;;-2.51;72.12;94288.50;4216828;28;20575;-53
2022/12/13 06:16:46;;;;;;;24.08;16.42;;;;;;;-2.32;73.15;94279.72;4215738;28;20062;-55
2022/12/13 06:18:47;;;;;;;26.00;15.15;;;;;;;-2.01;73.35;94275.28;4222914;28;20130;-56
2022/12/13 06:20:56;;;;;;;;;;;;;;;-1.69;72.10;94279.25;4198845;28;20097;-53
2022/12/13 06:22:58;;;;;;;23.15;15.25;;;;;;;-1.48;70.41;94271.13;4210792;28;19924;-54
2022/12/13 06:25:00;;;;;;;23.85;15.80;;;;;;;-1.72;69.81;94276.88;4210662;28;20052;-56
2022/12/13 06:27:04;;;;;;;26.48;17.55;;;;;;;-1.89;71.29;94277.13;4223927;28;20055;-55
2022/12/13 06:29:05;;;;;;;30.25;19.25;;;;;;;-1.81;71.77;94282.56;4210017;28;20055;-54
2022/12/13 06:31:07;;;;;;;32.17;21.17;;;;;;;-1.78;71.75;94284.16;4223398;28;20410;-53
2022/12/13 06:33:10;;;;;;;29.55;20.70;;;;;;;-1.72;71.52;94284.59;4213926;28;20043;-55
2022/12/13 06:35:14;;;;;;;31.73;21.92;;;;;;;-1.65;70.71;94280.72;4210559;28;20131;-55
2022/12/13 06:37:30;;;;;;;32.38;22.10;;;;;;;-1.83;71.01;94292.13;4202221;28;20090;-52
2022/12/13 06:39:35;;;;;;;29.33;20.25;;;;;;;-1.64;71.65;94286.66;4210556;28;20223;-52
2022/12/13 06:41:37;;;;;;;30.13;19.40;;;;;;;-1.36;71.38;94287.50;4210406;28;20086;-56
2022/12/13 06:43:43;;;;;;;30.10;19.38;;;;;;;-1.03;70.36;94287.09;4210618;28;20084;-56
2022/12/13 06:45:46;;;;;;;29.65;18.30;;;;;;;-0.77;68.99;94287.16;4209164;28;20056;-53
2022/12/13 06:47:48;;;;;;;24.10;16.65;;;;;;;-0.63;67.51;94290.44;4210713;28;20117;-56
2022/12/13 06:49:49;;;;;;;24.00;15.65;;;;;;;-0.53;66.89;94285.53;4209973;28;20093;-55
2022/12/13 06:51:51;;;;;;;23.63;15.93;;;;;;;-0.44;66.98;94295.19;4210601;28;20105;-53
2022/12/13 06:53:53;;;;;;;23.90;15.45;;;;;;;-0.39;66.35;94286.34;4210451;28;20410;-54
2022/12/13 06:55:55;;;;;;;28.33;17.52;;;;;;;-0.54;65.91;94289.00;4199648;28;20373;-53
2022/12/13 06:57:57;;;;;;;23.58;15.70;;;;;;;-0.50;67.07;94290.44;4207950;28;20063;-56
2022/12/13 06:59:59;;;;;;;20.92;14.23;;;;;;;-0.39;66.92;94294.88;4204416;28;20106;-52
2022/12/13 07:02:01;;;;;;;25.90;16.50;;;;;;;-0.26;66.42;94292.31;4201785;28;20056;-53
2022/12/13 07:04:07;;;;;;;24.35;15.52;;;;;;;-0.28;66.42;94289.84;4209985;28;20173;-55
2022/12/13 07:06:29;;;;;;;;;;;;;;;-0.51;66.08;94288.81;4199529;28;20044;-53
2022/12/13 07:08:31;;;;;;;24.95;16.33;;;;;;;-0.50;67.15;94299.91;4210508;28;20480;-58
2022/12/13 07:10:32;;;;;;;21.02;14.65;;;;;;;-0.27;66.36;94303.53;4222121;28;20056;-55
2022/12/13 07:12:34;;;;;;;22.63;15.23;;;;;;;-0.12;65.95;94310.22;4209711;28;20151;-51
2022/12/13 07:14:36;;;;;;;23.88;16.85;;;;;;;0.08;65.40;94302.88;4220765;28;20044;-55
2022/12/13 07:16:41;;;;;;;25.20;16.92;;;;;;;0.15;63.62;94304.09;4209068;28;20059;-56
2022/12/13 07:18:43;;;;;;;23.88;14.25;;;;;;;0.30;63.44;94308.22;4210656;28;20461;-54
2022/12/13 07:20:45;;;;;;;23.23;14.90;;;;;;;0.38;63.64;94305.91;4210491;28;20088;-55
2022/12/13 07:22:51;;;;;;;20.15;14.05;;;;;;;0.46;63.00;94314.88;4204015;28;20090;-53
2022/12/13 07:24:59;;;;;;;23.98;15.18;;;;;;;0.57;63.61;94307.19;4193267;28;20405;-56
2022/12/13 07:27:02;;;;;;;19.98;13.27;;;;;;;0.43;63.33;94313.34;4210946;28;20058;-55
2022/12/13 07:29:03;;;;;;;20.58;14.18;;;;;;;0.52;63.42;94312.69;4216613;28;20567;-56
2022/12/13 07:31:07;;;;;;;25.92;15.60;;;;;;;0.07;64.49;94325.25;4200763;28;20079;-54
2022/12/13 07:33:09;;;;;;;25.13;14.35;;;;;;;0.17;64.55;94325.41;4206147;28;20064;-54
2022/12/13 07:35:10;;;;;;;21.65;13.63;;;;;;;0.23;64.27;94327.59;4209548;28;21182;-54
2022/12/13 07:37:12;;;;;;;25.02;15.10;;;;;;;0.43;63.65;94320.22;4209281;28;20060;-51
2022/12/13 07:39:31;;;;;;;21.58;13.85;;;;;;;0.45;62.72;94321.75;4209987;28;20092;-58
2022/12/13 07:41:33;;;;;;;23.40;14.93;;;;;;;0.57;62.50;94312.34;4205224;28;20056;-52
2022/12/13 07:43:35;;;;;;;23.83;15.40;;;;;;;0.66;62.19;94316.03;4210818;28;20067;-57
2022/12/13 07:45:36;;;;;;;24.25;15.82;;;;;;;-0.27;62.88;94324.13;4209197;28;20142;-59
2022/12/13 07:47:38;;;;;;;22.67;15.85;;;;;;;-0.89;66.14;94327.34;4210055;28;20057;-55
2022/12/13 07:49:39;;;;;;;24.23;15.85;;;;;;;-0.72;66.76;94319.34;4215759;28;20056;-53
2022/12/13 07:51:41;;;;;;;27.30;17.38;;;;;;;-0.62;66.02;94330.69;4216246;28;20101;-55
2022/12/13 07:53:43;;;;;;;26.80;16.73;;;;;;;-0.73;65.95;94334.88;4212386;28;20139;-52
2022/12/13 07:55:44;;;;;;;27.65;18.92;;;;;;;-0.44;65.57;94332.97;4226180;28;20059;-57
2022/12/13 07:57:46;;;;;;;29.23;19.05;;;;;;;-0.38;65.74;94334.31;4226447;28;20067;-56
2022/12/13 07:59:48;;;;;;;34.47;20.90;;;;;;;-0.79;65.43;94341.25;4221941;28;20466;-55
2022/12/13 08:01:49;;;;;;;30.20;21.27;;;;;;;-0.85;66.83;94333.94;4215129;28;20135;-57
2022/12/13 08:03:51;;;;;;;33.13;22.02;;;;;;;-0.97;67.42;94330.38;4216810;28;20074;-56
2022/12/13 08:06:04;;;;;;;31.02;20.88;;;;;;;-1.02;66.91;94332.44;4210031;28;20143;-51
2022/12/13 08:08:07;;;;;;;27.55;18.52;;;;;;;-1.26;67.46;94343.38;4198518;28;20062;-56
2022/12/13 08:10:09;;;;;;;24.58;16.85;;;;;;;-1.54;65.78;94351.97;4209324;28;20135;-56
2022/12/13 08:12:11;;;;;;;26.23;17.88;;;;;;;-1.67;66.81;94341.63;4209579;28;20554;-56
2022/12/13 08:14:12;;;;;;;24.40;17.20;;;;;;;-1.96;67.49;94352.84;4222383;28;20473;-54
2022/12/13 08:16:16;;;;;;;26.25;18.00;;;;;;;-2.01;68.75;94354.88;4212059;28;20079;-54
2022/12/13 08:18:29;;;;;;;26.50;17.23;;;;;;;-2.06;68.10;94353.41;4223806;28;20073;-55
2022/12/13 08:20:31;;;;;;;27.88;17.95;;;;;;;-2.05;68.65;94356.78;4215411;28;20071;-56
2022/12/13 08:22:32;;;;;;;32.53;20.20;;;;;;;-1.82;69.07;94355.41;4224702;28;20627;-54
2022/12/13 08:24:36;;;;;;;;;;;;;;;-1.33;69.22;94357.53;4213209;28;20241;-54
2022/12/13 08:26:38;;;;;;;31.95;18.38;;;;;;;-0.84;68.06;94359.56;4224594;28;20619;-54
2022/12/13 08:28:42;;;;;;;28.90;19.63;;;;;;;-0.57;66.26;94361.25;4227452;28;20124;-52
2022/12/13 08:30:44;;;;;;;37.50;21.63;;;;;;;-0.26;64.70;94351.50;4222326;28;20150;-58
2022/12/13 08:32:48;;;;;;;35.47;20.95;;;;;;;-0.73;64.69;94350.31;4212581;28;20059;-55
2022/12/13 08:34:49;;;;;;;;;;;;;;;-0.67;64.67;94337.91;4226238;28;20058;-54
2022/12/13 08:36:51;;;;;;;45.53;26.83;;;;;;;-0.80;65.48;94336.22;4212306;28;19963;-57
2022/12/13 08:39:03;;;;;;;36.20;21.00;;;;;;;-0.78;64.75;94336.94;4220370;28;20048;-56
2022/12/13 08:41:05;;;;;;;26.17;16.83;;;;;;;-0.95;64.85;94343.97;4221502;28;20055;-54
2022/12/13 08:43:07;;;;;;;26.88;18.02;;;;;;;-0.78;64.81;94342.06;4217782;28;20052;-56
2022/12/13 08:45:09;;;;;;;33.72;19.77;;;;;;;-0.96;65.28;94342.34;4217490;28;20438;-54
2022/12/13 08:47:10;;;;;;;35.50;20.10;;;;;;;-0.76;65.49;94338.47;4214728;28;20072;-51
2022/12/13 08:49:23;;;;;;;28.60;17.63;;;;;;;-1.29;64.85;94338.44;4199437;28;20090;-54
2022/12/13 08:51:24;;;;;;;27.98;17.90;;;;;;;-1.18;65.83;94329.19;4228110;28;20051;-57
2022/12/13 08:53:35;;;;;;;28.20;17.88;;;;;;;-1.00;66.55;94317.75;4208084;28;20044;-57
2022/12/13 08:55:41;;;;;;;29.80;19.00;;;;;;;-0.65;66.00;94318.00;4228847;28;20058;-57
2022/12/13 08:57:44;;;;;;;35.40;19.00;;;;;;;-0.58;65.12;94309.88;4229090;28;20071;-57
2022/12/13 08:59:45;;;;;;;27.00;18.23;;;;;;;-1.01;64.68;94310.97;4208290;28;20524;-57
2022/12/13 09:01:47;;;;;;;38.03;20.45;;;;;;;-1.07;64.60;94312.19;4200564;28;20476;-54
2022/12/13 09:03:54;;;;;;;28.17;18.83;;;;;;;-0.97;65.12;94312.38;4223025;28;20060;-53
2022/12/13 09:05:56;;;;;;;32.58;19.85;;;;;;;-0.69;65.88;94298.59;4227722;28;20184;-56
2022/12/13 09:08:01;;;;;;;29.90;19.27;;;;;;;-0.11;64.07;94304.13;4224760;28;20107;-58
2022/12/13 09:10:03;;;;;;;23.63;16.58;;;;;;;0.43;63.10;94302.19;4212016;28;20060;-59
2022/12/13 09:12:25;;;;;;;23.75;14.60;;;;;;;1.04;61.40;94295.25;4225571;28;20047;-57
2022/12/13 09:14:31;;;;;;;26.17;14.55;;;;;;;1.32;60.55;94288.88;4222562;28;20138;-56
2022/12/13 09:16:35;;;;;;;20.13;12.80;;;;;;;1.61;58.75;94289.31;4211268;28;20052;-55
2022/12/13 09:18:37;;;;;;;20.70;12.60;;;;;;;1.76;57.23;94286.50;4211531;28;20098;-57
2022/12/13 09:20:41;;;;;;;16.02;10.70;;;;;;;1.96;58.37;94272.91;4224604;28;20069;-54
2022/12/13 09:22:43;;;;;;;16.17;10.05;;;;;;;2.19;56.56;94271.09;4218231;28;20079;-55
2022/12/13 09:24:45;;;;;;;20.02;11.20;;;;;;;2.39;56.01;94267.00;4227856;28;20063;-56
2022/12/13 09:26:50;;;;;;;16.88;9.52;;;;;;;2.63;55.00;94266.00;4226178;28;20143;-56
2022/12/13 09:28:57;;;;;;;16.02;9.65;;;;;;;2.10;54.68;94268.44;4214146;28;20047;-56
2022/12/13 09:31:14;;;;;;;14.57;8.98;;;;;;;1.78;55.23;94264.75;4217821;28;20063;-56
2022/12/13 09:33:16;;;;;;;15.07;7.80;;;;;;;1.86;55.61;94264.19;4210406;28;20060;-58
2022/12/13 09:35:30;;;;;;;12.82;8.00;;;;;;;2.13;54.52;94265.59;4200700;28;20048;-60
2022/12/13 09:37:32;;;;;;;15.35;8.55;;;;;;;2.42;54.96;94261.56;4211480;28;20055;-62
2022/12/13 09:39:34;;;;;;;13.27;8.20;;;;;;;2.57;53.34;94262.13;4211098;28;20059;-59
2022/12/13 09:41:48;;;;;;;13.57;8.60;;;;;;;1.80;53.17;94260.31;4221678;28;20499;-56
2022/12/13 09:44:05;;;;;;;12.63;8.70;;;;;;;1.76;53.80;94269.22;4188899;28;20183;-55
2022/12/13 09:46:29;;;;;;;12.27;7.07;;;;;;;2.21;53.52;94260.66;4179438;28;20088;-58
2022/12/13 09:48:45;;;;;;;12.07;7.25;;;;;;;2.54;52.54;94257.22;4207180;28;20136;-55
2022/12/13 09:50:49;;;;;;;11.38;7.35;;;;;;;2.87;52.46;94255.44;4211590;28;20067;-58
2022/12/13 09:53:00;;;;;;;14.68;8.73;;;;;;;2.84;51.30;94253.13;4209113;28;20094;-58
2022/12/13 09:55:02;;;;;;;16.87;9.93;;;;;;;2.65;51.22;94258.94;4179775;28;20048;-55
2022/12/13 09:57:23;;;;;;;22.30;10.13;;;;;;;2.48;51.55;94262.03;4194470;28;20119;-56
2022/12/13 09:59:34;;;;;;;20.00;10.05;;;;;;;1.96;51.89;94261.75;4192323;28;20072;-56
2022/12/13 10:01:36;;;;;;;16.30;10.30;;;;;;;1.84;52.50;94264.31;4180655;28;20048;-56
2022/12/13 10:03:40;;;;;;;17.63;8.98;;;;;;;1.40;51.89;94272.84;4211039;28;20056;-55
2022/12/13 10:05:46;;;;;;;15.70;8.80;;;;;;;1.06;52.44;94264.19;4192924;28;20060;-49
2022/12/13 10:07:48;;;;;;;17.33;7.95;;;;;;;0.99;52.24;94266.34;4181021;28;20059;-57
2022/12/13 10:09:58;;;;;;;15.10;8.70;;;;;;;1.02;53.73;94259.22;4211437;28;20148;-58
2022/12/13 10:12:00;;;;;;;14.38;7.90;;;;;;;1.20;53.54;94263.97;4192944;28;20080;-58
2022/12/13 10:14:09;;;;;;;13.73;8.10;;;;;;;1.01;54.11;94259.34;4214140;28;20052;-57
2022/12/13 10:16:35;;;;;;;13.93;7.93;;;;;;;0.79;53.25;94258.31;4187429;28;20191;-58
2022/12/13 10:18:40;;;;;;;15.23;9.43;;;;;;;1.00;55.03;94247.38;4207019;28;20056;-56
2022/12/13 10:20:41;;;;;;;;;;;;;;;1.55;54.38;94251.03;4212685;28;20485;-50
2022/12/13 10:22:44;;;;;;;15.43;9.63;;;;;;;1.84;53.92;94248.00;4212171;28;19973;-54
2022/12/13 10:25:06;;;;;;;18.42;11.10;;;;;;;1.59;53.31;94249.88;4210455;28;20040;-55
2022/12/13 10:27:14;;;;;;;27.20;16.00;;;;;;;1.22;53.96;94236.31;4211888;28;20062;-57
2022/12/13 10:29:16;;;;;;;14.20;9.70;;;;;;;1.15;54.36;94222.22;4204443;28;20121;-59
2022/12/13 10:31:18;;;;;;;18.45;10.63;;;;;;;1.07;54.18;94216.78;4205618;28;20504;-59
2022/12/13 10:33:24;;;;;;;15.00;9.48;;;;;;;1.19;54.87;94218.47;4211267;28;20066;-59
2022/12/13 10:35:29;;;;;;;17.75;9.77;;;;;;;1.13;54.24;94213.78;4207689;28;20566;-54
2022/12/13 10:37:31;;;;;;;18.20;10.98;;;;;;;1.59;55.33;94221.47;4203820;28;20474;-59
2022/12/13 10:39:35;;;;;;;20.95;12.77;;;;;;;1.70;54.11;94207.75;4200037;28;20052;-59
2022/12/13 10:41:38;;;;;;;14.25;9.13;;;;;;;0.80;54.09;94218.72;4208071;28;20064;-57
2022/12/13 10:43:40;;;;;;;15.82;9.90;;;;;;;0.57;54.94;94209.25;4210570;28;20439;-56
2022/12/13 10:45:55;;;;;;;18.40;9.45;;;;;;;0.63;55.42;94208.81;4208738;28;20489;-58
2022/12/13 10:47:57;;;;;;;20.10;10.65;;;;;;;0.92;55.76;94203.28;4205484;28;20125;-56
2022/12/13 10:50:05;;;;;;;13.48;8.77;;;;;;;0.63;55.95;94201.06;4209675;28;20068;-56
2022/12/13 10:52:31;;;;;;;10.18;6.65;;;;;;;0.62;54.60;94202.00;4210655;28;20052;-57
2022/12/13 10:54:36;;;;;;;15.38;8.27;;;;;;;0.64;53.94;94192.41;4189073;28;20098;-55
2022/12/13 10:56:46;;;;;;;11.45;8.90;;;;;;;0.52;55.10;94194.13;4197166;28;20052;-56
2022/12/13 10:58:50;;;;;;;11.95;7.88;;;;;;;0.64;55.59;94189.81;4183860;28;20053;-57
2022/12/13 11:00:52;;;;;;;18.83;9.15;;;;;;;0.82;55.85;94191.06;4186471;28;20059;-55
2022/12/13 11:02:54;;;;;;;14.20;9.38;;;;;;;0.81;54.83;94191.16;4190167;28;20401;-57
2022/12/13 11:04:57;;;;;;;16.40;9.35;;;;;;;1.12;54.78;94189.75;4210101;28;20281;-53
2022/12/13 11:07:20;;;;;;;12.90;8.68;;;;;;;1.19;54.98;94184.94;4213364;28;20463;-57
2022/12/13 11:09:29;;;;;;;16.33;10.70;;;;;;;1.01;54.89;94189.69;4196452;28;20118;-62
2022/12/13 11:11:39;;;;;;;16.38;11.35;;;;;;;0.92;56.31;94192.97;4210087;28;20104;-55
2022/12/13 11:13:44;;;;;;;16.40;11.45;;;;;;;1.09;56.55;94179.63;4198583;28;20088;-51
2022/12/13 11:15:53;;;;;;;13.30;8.75;;;;;;;1.69;56.28;94172.50;4208218;28;20428;-53
2022/12/13 11:17:58;;;;;;;16.88;9.30;;;;;;;1.99;53.16;94166.72;4197797;28;20513;-54
2022/12/13 11:20:03;;;;;;;14.85;9.65;;;;;;;1.84;53.01;94170.50;4202959;28;20461;-56
2022/12/13 11:22:07;;;;;;;18.25;10.57;;;;;;;1.74;53.59;94169.56;4192317;28;20129;-53
2022/12/13 11:24:19;;;;;;;15.10;9.80;;;;;;;2.02;54.87;94163.06;4179662;28;20481;-54
2022/12/13 11:26:24;;;;;;;13.77;8.90;;;;;;;2.47;53.76;94162.94;4192052;28;20148;-56
2022/12/13 11:28:38;;;;;;;14.10;8.85;;;;;;;2.73;52.71;94163.47;4210074;28;20078;-57
2022/12/13 11:31:00;;;;;;;17.85;8.13;;;;;;;3.10;52.24;94172.53;4204629;28;20052;-56
2022/12/13 11:33:16;;;;;;;11.75;8.02;;;;;;;3.39;50.40;94175.31;4220662;28;20402;-56
2022/12/13 11:35:24;;;;;;;12.82;7.72;;;;;;;3.01;49.78;94171.53;4207517;28;20068;-59
2022/12/13 11:37:38;;;;;;;13.93;7.57;;;;;;;2.51;52.08;94179.88;4219448;28;20052;-57
2022/12/13 11:39:44;;;;;;;8.45;5.95;;;;;;;2.55;51.67;94191.59;4210036;28;20500;-60
2022/12/13 11:42:17;;;;;;;7.95;5.40;;;;;;;2.89;50.26;94178.53;4209404;28;20054;-55
2022/12/13 11:44:26;;;;;;;11.02;6.88;;;;;;;3.24;49.60;94167.03;4209088;28;20056;-55
2022/12/13 11:46:37;;;;;;;12.98;7.90;;;;;;;3.56;49.96;94159.16;4191448;28;20053;-56
2022/12/13 11:48:46;;;;;;;12.43;8.18;;;;;;;2.73;50.60;94176.38;4187029;28;20409;-55
2022/12/13 11:50:50;;;;;;;13.48;7.93;;;;;;;2.69;52.46;94172.41;4204985;28;20048;-58
2022/12/13 11:52:52;;;;;;;;;;;;;;;2.92;51.77;94172.28;4191120;28;20144;-51
2022/12/13 11:55:16;;;;;;;10.80;6.93;;;;;;;3.15;51.83;94168.63;4205001;28;19970;-56
2022/12/13 11:57:41;;;;;;;11.05;8.07;;;;;;;3.46;51.34;94153.13;4221347;28;20063;-58
2022/12/13 11:59:54;;;;;;;11.93;7.18;;;;;;;2.55;49.68;94165.75;4225554;28;20068;-58
2022/12/13 12:02:26;;;;;;;8.75;5.38;;;;;;;1.64;51.70;94170.28;4204621;28;20066;-55
2022/12/13 12:04:38;;;;;;;11.68;6.78;;;;;;;1.29;52.40;94164.41;4192277;28;20126;-55
2022/12/13 12:07:06;;;;;;;13.77;8.13;;;;;;;1.26;55.28;94157.72;4205150;28;20463;-58
2022/12/13 12:09:28;;;;;;;13.55;8.40;;;;;;;1.67;56.25;94147.75;4212823;28;20124;-59
2022/12/13 12:11:41;;;;;;;10.93;7.13;;;;;;;2.17;55.11;94153.28;4188515;28;20068;-56
2022/12/13 12:13:48;;;;;;;10.45;6.45;;;;;;;2.58;53.45;94144.00;4200894;28;20048;-58
2022/12/13 12:15:55;;;;;;;10.35;6.78;;;;;;;2.86;52.30;94147.72;4210072;28;20060;-53
2022/12/13 12:17:57;;;;;;;11.43;5.90;;;;;;;3.10;51.09;94152.66;4219880;28;20054;-53
2022/12/13 12:19:59;;;;;;;9.55;6.00;;;;;;;3.31;50.98;94152.63;4229526;28;20051;-54
2022/12/13 12:22:22;;;;;;;9.05;5.97;;;;;;;3.40;49.96;94140.69;4227864;28;20467;-55
2022/12/13 12:24:39;;;;;;;8.68;5.63;;;;;;;3.59;49.85;94153.75;4228692;28;20059;-56
2022/12/13 12:26:50;;;;;;;9.32;5.60;;;;;;;3.66;49.68;94141.91;4216393;28;20063;-58
2022/12/13 12:28:58;;;;;;;8.02;5.57;;;;;;;3.50;49.10;94144.13;4214144;28;20152;-56
2022/12/13 12:31:28;;;;;;;7.65;5.43;;;;;;;3.13;49.80;94139.47;4228195;28;20051;-51
2022/12/13 12:33:42;;;;;;;10.77;6.30;;;;;;;2.46;50.36;94153.56;4212049;28;20056;-59
2022/12/13 12:36:07;;;;;;;9.70;6.85;;;;;;;2.35;52.97;94149.25;4212842;28;20440;-57
2022/12/13 12:38:13;;;;;;;;;;;;;;;2.59;52.62;94153.41;4225513;28;20078;-58
2022/12/13 12:40:25;;;;;;;10.48;5.78;;;;;;;1.70;52.52;94157.84;4209480;28;20029;-57
2022/12/13 12:43:00;;;;;;;15.63;6.75;;;;;;;1.74;54.22;94159.25;4218473;28;20429;-56
2022/12/13 12:45:51;;;;;;;9.82;5.75;;;;;;;1.52;53.36;94160.91;4208133;28;20150;-56
2022/12/13 12:48:19;;;;;;;10.70;6.38;;;;;;;1.38;54.53;94168.91;4223523;28;20369;-53
2022/12/13 12:50:49;;;;;;;13.43;7.25;;;;;;;1.36;55.96;94176.75;4202930;28;20127;-54
2022/12/13 12:53:02;;;;;;;9.90;6.90;;;;;;;1.76;55.62;94171.09;4207067;28;20516;-54
2022/12/13 12:55:18;;;;;;;11.15;7.57;;;;;;;2.18;54.50;94180.78;4178119;28;20118;-55
2022/12/13 12:57:43;;;;;;;12.25;7.80;;;;;;;2.56;53.79;94176.91;4170538;28;20053;-56
2022/12/13 13:00:04;;;;;;;;;;;;;;;2.54;51.85;94176.22;4198365;28;20052;-55
2022/12/13 13:02:25;;;;;;;10.65;7.07;;;;;;;1.95;52.71;94178.25;4202819;28;19931;-56
2022/12/13 13:04:41;;;;;;;9.90;7.45;;;;;;;1.26;54.10;94187.88;4193535;28;20056;-56
2022/12/13 13:06:46;;;;;;;9.90;6.70;;;;;;;0.98;54.74;94183.00;4195928;28;20048;-56
2022/12/13 13:09:00;;;;;;;11.55;7.95;;;;;;;0.85;56.38;94191.78;4187556;28;20072;-53
2022/12/13 13:11:03;;;;;;;12.30;8.38;;;;;;;1.03;56.72;94195.56;4197053;28;20118;-55
2022/12/13 13:13:05;;;;;;;13.30;8.90;;;;;;;1.40;57.14;94200.56;4183272;28;20091;-55
2022/12/13 13:15:29;;;;;;;10.88;7.90;;;;;;;1.27;55.55;94208.41;4195434;28;20044;-53
2022/12/13 13:17:31;;;;;;;8.77;6.32;;;;;;;1.51;55.33;94199.75;4195828;28;20067;-53
2022/12/13 13:19:33;;;;;;;10.38;7.07;;;;;;;1.80;55.23;94200.09;4195188;28;20056;-58
2022/12/13 13:21:48;;;;;;;9.00;6.13;;;;;;;2.08;54.23;94209.09;4214610;28;20134;-55
2022/12/13 13:24:13;;;;;;;10.95;6.88;;;;;;;2.34;53.76;94214.00;4208620;28;20487;-56
2022/12/13 13:26:28;;;;;;;11.20;7.38;;;;;;;2.39;53.51;94217.06;4203690;28;20060;-52
2022/12/13 13:28:36;;;;;;;11.07;6.65;;;;;;;2.15;53.59;94212.03;4208021;28;20124;-53
2022/12/13 13:31:13;;;;;;;12.52;8.02;;;;;;;1.62;54.83;94228.97;4203310;28;20204;-56
2022/12/13 13:33:42;;;;;;;12.52;8.10;;;;;;;1.40;56.64;94234.13;4228459;28;20051;-58
2022/12/13 13:35:46;;;;;;;14.20;9.00;;;;;;;1.27;57.95;94235.94;4212414;28;20190;-51
2022/12/13 13:37:48;;;;;;;16.80;9.60;;;;;;;1.01;57.37;94236.97;4224897;28;20052;-55
2022/12/13 13:40:11;;;;;;;12.50;8.30;;;;;;;0.78;57.36;94235.25;4218877;28;20411;-54
2022/12/13 13:42:12;;;;;;;16.10;10.32;;;;;;;0.88;58.63;94238.78;4207524;28;20085;-55
2022/12/13 13:44:44;;;;;;;24.30;14.50;;;;;;;1.06;58.88;94231.47;4213619;28;20477;-58
2022/12/13 13:47:08;;;;;;;25.92;14.82;;;;;;;1.18;58.32;94219.41;4226419;28;20090;-58
2022/12/13 13:49:11;;;;;;;24.45;16.02;;;;;;;1.16;58.73;94211.78;4211691;28;20063;-55
2022/12/13 13:51:50;;;;;;;26.17;16.07;;;;;;;1.27;58.35;94210.16;4193328;28;20053;-57
2022/12/13 13:54:24;;;;;;;27.02;16.52;;;;;;;1.39;58.94;94217.78;4194767;28;20136;-54
2022/12/13 13:56:34;;;;;;;27.20;16.52;;;;;;;1.67;58.50;94209.72;4209946;28;20055;-57
2022/12/13 13:59:03;;;;;;;23.63;15.45;;;;;;;1.90;57.96;94203.63;4210630;28;20436;-52
2022/12/13 14:01:33;;;;;;;23.23;15.63;;;;;;;2.17;55.91;94203.25;4220687;28;20500;-54
2022/12/13 14:04:12;;;;;;;25.55;14.40;;;;;;;2.36;55.09;94205.16;4202487;28;20075;-53
2022/12/13 14:06:35;;;;;;;26.05;15.27;;;;;;;2.10;55.02;94189.13;4208718;28;20118;-58
2022/12/13 14:09:03;;;;;;;20.70;12.63;;;;;;;2.08;55.22;94183.25;4202961;28;20500;-52
2022/12/13 14:11:35;;;;;;;22.63;14.65;;;;;;;1.89;55.74;94183.06;4208415;28;20472;-55
2022/12/13 14:14:01;;;;;;;19.30;12.82;;;;;;;1.66;54.87;94182.25;4204885;28;20108;-56
2022/12/13 14:16:30;;;;;;;18.80;11.82;;;;;;;1.60;55.56;94183.56;4198162;28;20086;-54
2022/12/13 14:18:53;;;;;;;19.88;13.57;;;;;;;1.82;55.68;94190.47;4182162;28;20457;-58
2022/12/13 14:21:26;;;;;;;16.10;10.68;;;;;;;2.05;56.21;94194.66;4194884;28;20053;-57
2022/12/13 14:23:47;;;;;;;21.63;13.45;;;;;;;2.25;56.29;94197.44;4195077;28;20129;-57
2022/12/13 14:26:14;;;;;;;22.02;14.18;;;;;;;2.42;55.41;94199.53;4194704;28;20094;-52
2022/12/13 14:28:24;;;;;;;20.50;13.35;;;;;;;2.55;56.11;94195.97;4206913;28;20453;-56
2022/12/13 14:30:27;;;;;;;19.23;12.50;;;;;;;2.60;55.04;94186.91;4220424;28;20055;-57
2022/12/13 14:32:34;;;;;;;19.83;12.98;;;;;;;2.69;54.84;94181.91;4205783;28;20518;-55
2022/12/13 14:34:36;;;;;;;18.27;11.68;;;;;;;2.65;55.64;94168.44;4189399;28;20558;-54
2022/12/13 14:36:38;;;;;;;16.35;11.20;;;;;;;2.66;55.32;94167.47;4199349;28;20045;-53
2022/12/13 14:38:39;;;;;;;17.85;11.07;;;;;;;2.69;55.00;94164.66;4207967;28;20052;-54
2022/12/13 14:40:50;;;;;;;18.92;11.70;;;;;;;2.70;52.96;94168.88;4196067;28;20486;-53
2022/12/13 14:42:54;;;;;;;16.85;10.55;;;;;;;2.71;53.38;94175.69;4208231;28;20067;-56
2022/12/13 14:45:23;;;;;;;17.17;10.68;;;;;;;2.77;53.21;94182.13;4217204;28;20457;-52
2022/12/13 14:47:26;;;;;;;18.42;10.32;;;;;;;2.86;53.10;94189.13;4220518;28;20060;-55
2022/12/13 14:49:35;;;;;;;14.73;9.98;;;;;;;2.85;53.10;94183.13;4192373;28;20048;-52
2022/12/13 14:51:38;;;;;;;17.17;11.07;;;;;;;2.88;52.45;94184.66;4184731;28;20079;-53
2022/12/13 14:53:40;;;;;;;17.63;10.53;;;;;;;2.89;52.24;94183.72;4188197;28;20059;-58
2022/12/13 14:56:11;;;;;;;16.15;10.57;;;;;;;2.91;52.40;94186.19;4220766;28;20054;-52
2022/12/13 14:58:28;;;;;;;14.90;9.60;;;;;;;2.91;52.50;94192.16;4213812;28;20640;-56
2022/12/13 15:00:37;;;;;;;16.42;9.95;;;;;;;2.96;52.43;94191.78;4212147;28;20082;-56
2022/12/13 15:02:49;;;;;;;14.18;9.95;;;;;;;2.96;53.10;94191.78;4220074;28;20090;-57
2022/12/13 15:04:59;;;;;;;13.05;8.73;;;;;;;2.97;52.76;94206.34;4213670;28;20526;-54
2022/12/13 15:07:06;;;;;;;15.27;9.55;;;;;;;2.98;52.56;94208.00;4213879;28;20052;-54
2022/12/13 15:09:15;;;;;;;19.17;13.02;;;;;;;3.00;52.79;94216.47;4221946;28;20067;-54
2022/12/13 15:11:16;;;;;;;12.35;8.73;;;;;;;2.97;52.70;94220.13;4213614;28;20125;-55
2022/12/13 15:13:26;;;;;;;18.02;12.50;;;;;;;2.93;52.50;94215.34;4202000;28;20501;-54
2022/12/13 15:15:33;;;;;;;17.15;10.77;;;;;;;2.93;52.97;94213.56;4220097;28;20074;-57
2022/12/13 15:17:37;;;;;;;15.98;10.70;;;;;;;2.89;53.24;94213.94;4200239;28;20048;-55
2022/12/13 15:19:42;;;;;;;;;;;;;;;2.85;53.69;94209.00;4219861;28;20135;-56
2022/12/13 15:21:54;;;;;;;19.08;11.75;;;;;;;2.87;53.96;94220.06;4221472;28;19924;-56
2022/12/13 15:24:03;;;;;;;18.63;10.65;;;;;;;2.90;53.63;94229.31;4211629;28;20051;-56
2022/12/13 15:26:10;;;;;;;18.40;10.73;;;;;;;2.87;54.09;94230.41;4200343;28;20507;-54
2022/12/13 15:28:13;;;;;;;16.65;11.27;;;;;;;2.88;53.85;94231.22;4197620;28;20055;-57
2022/12/13 15:30:21;;;;;;;20.73;11.85;;;;;;;2.88;54.28;94233.81;4209589;28;20071;-55
2022/12/13 15:32:31;;;;;;;19.20;12.20;;;;;;;2.84;54.49;94233.25;4213700;28;20450;-57
2022/12/13 15:34:34;;;;;;;20.63;12.20;;;;;;;2.82;54.46;94242.09;4215811;28;20055;-55
2022/12/13 15:36:37;;;;;;;20.20;13.02;;;;;;;2.81;55.08;94245.59;4219848;28;20461;-53
2022/12/13 15:38:46;;;;;;;23.10;13.80;;;;;;;2.84;55.71;94242.78;4213615;28;20122;-54
2022/12/13 15:40:48;;;;;;;20.15;12.65;;;;;;;2.89;55.72;94245.00;4182945;28;20107;-55
2022/12/13 15:42:50;;;;;;;21.45;14.15;;;;;;;2.92;55.83;94239.56;4202556;28;20535;-53
2022/12/13 15:44:54;;;;;;;21.77;14.00;;;;;;;2.90;55.62;94237.09;4198479;28;20060;-52
2022/12/13 15:47:02;;;;;;;19.60;13.05;;;;;;;2.88;55.91;94238.97;4205672;28;20052;-53
2022/12/13 15:49:31;;;;;;;21.52;13.27;;;;;;;2.96;55.65;94239.19;4191518;28;20534;-57
2022/12/13 15:51:52;;;;;;;21.20;12.88;;;;;;;2.87;56.70;94232.97;4223017;28;20055;-56
2022/12/13 15:54:05;;;;;;;21.33;12.50;;;;;;;2.88;56.59;94231.22;4207250;28;20100;-54
2022/12/13 15:56:31;;;;;;;19.48;12.57;;;;;;;2.90;56.14;94228.50;4210154;28;20055;-54
2022/12/13 15:58:34;;;;;;;22.33;13.93;;;;;;;3.02;56.97;94222.34;4192681;28;20049;-59
2022/12/13 16:00:36;;;;;;;22.75;14.45;;;;;;;3.00;57.76;94216.47;4174938;28;20084;-57
2022/12/13 16:02:49;;;;;;;26.67;15.48;;;;;;;3.07;58.04;94225.38;4193628;28;20044;-58
2022/12/13 16:04:51;;;;;;;23.67;15.38;;;;;;;3.11;58.97;94228.53;4193543;28;20049;-58
2022/12/13 16:06:54;;;;;;;23.95;16.40;;;;;;;3.04;59.40;94217.88;4202100;28;20086;-57
2022/12/13 16:08:58;;;;;;;25.83;15.88;;;;;;;3.04;59.45;94223.03;4209819;28;20082;-56
2022/12/13 16:11:00;;;;;;;22.95;15.38;;;;;;;2.99;59.65;94222.56;4197539;28;20148;-57